Big Trout Lake, Canada
Current Conditions -  °F | °C
As of 5:00 AM on Wednesday 22 Oct 2014 (Local Time) from CYTL Reporting Station
Few Clouds Few Clouds  
Wind Chill: 31°   Ceiling: Unl
Heat Index: 39°   Visibility: 9mi
Dew Point: 34°   Wind: 14mph
Humidity: 81%   Direction: 190°S
Pressure: 29.94"   Gusts: 21mph
Location:  53.77°N, 90.02°W
Report Text: CYTL 220900Z AUTO 19012G18KT 9SM FEW130 04/01 A2994 RMK SLP149
Loading
Personal Weather Stations






























Interactive Weather Map
Tropical Storm Tracking
New forecast layout! Learn more

10-Day Weather Forecast

Advertisements
Track Severe Weather on mobile